3M0 weather

Gastons Airport
Lakeview, Arkansas, United States

Public forecast

Using degrees Fahrenheit for public forecast. Weather courtesy of forecast.io.

METAR (pilot weather report)

Closest report is Marion County Regional Airport, 3.8 nm (7.1 km) SSW. Retrieved 2019/08/25 05:56 UTC (31 minutes ago):

KFLP 250556Z AUTO 00000KT 9SM OVC020 21/20 A3004 RMK AO2 SLP165 60001 T02060200 10211 20206 402280183 58005

TAF (pilot weather forecast)

Closest forecast is Ozark Regional Airport, 4.4 nm (8.1 km) ENE. Retrieved 2019/08/25 06:22 UTC (5 minutes ago):

TAF KBPK 250520Z 2506/2606 VRB05KT P6SM VCSH SCT005 BKN015 OVC040 TEMPO 2506/2510 2SM -SHRA BR BKN005 FM251300 15009KT P6SM VCSH OVC015 FM251500 15009KT P6SM VCTS SCT025 OVC035CB PROB30 2517/2523 5SM TSRA BR BKN015 OVC025CB FM260300 14007KT 5SM BR VCSH SCT025 BKN080 OVC150